Streamwood, IL

3:03 AM CST on November 22, 2014 (GMT -0600)
Schaumburg West | Change Station
CLOSE
Current Station
Personal Weather Station
Location: Schaumburg, IL
Elevation: 815 ft
Nearby Weather Stations

Elev 815 ft 42.02 °N, 88.14 °W | Updated 2 seconds ago

Overcast
Overcast
32.7 °F
Feels Like 24 °F
N
11.8
Wind Variable Wind from SW
Gusts 18.3 mph

Today
High -- | Low -- °F
--% Chance of Precip.
Yesterday
High -- | Low -- °F
Precip. -- in
6:51 AM 4:26 PM
Waning Crescent, 0% visible
Pressure 30.12 in
Visibility 4.0 miles
Clouds Overcast 700 ft
Windchill 24 °F
Dew Point 32 °F
Humidity 99%
Rainfall 0.02 in
Snow Depth Not available.
UV 0.0 out of 12
Pollen .10 out of 12
Air Quality Not available.
Flu Activity Not available.
METAR KDPA 220852Z 19011KT 4SM -RA BR OVC007 01/M01 A3009 RMK AO2 RAB26UPB27E28 CIG 006V010 SLP198 P0000 60000 T00061011 56022

More Conditions Fewer Conditions

Pressure 30.12 in
Visibility 4.0 miles
Clouds Overcast 700 ft
Windchill 24 °F
Dew Point 32 °F
Humidity 99%
Rainfall 0.02 in
Snow Depth Not available.
UV 0.0 out of 12
Pollen .10 out of 12
Air Quality Not available.
Flu Activity Not available.
METAR KDPA 220852Z 19011KT 4SM -RA BR OVC007 01/M01 A3009 RMK AO2 RAB26UPB27E28 CIG 006V010 SLP198 P0000 60000 T00061011 56022

More Conditions Fewer Conditions

10-Day Weather Forecast

Almanac

Astronomy

Nov. 22, 2014 Rise Set
Actual Time
Civil Twilight
Nautical Twilight
Astronomical Twilight
Moon
Length of Visible Light
Length of Day
Tomorrow will be .
, % of the Moon is Illuminated

Today's Extremes

State Highs State Lows

Community

WunderPhotos

Upload Photos

1,772,794 photos uploaded!

WunderBlogs® & News

Nearby

Air Quality

  Air Quality AQ Index Pollutant
Not available.

Snow Depth

Station Depth Elevation

Earthquake Activity

City Distance Mag. Time & Date
Minimum magnitude displayed is 2.5.

Coastal Water Temperatures

Place Temperature

Nearby Weather Stations